sensor_id;sensor_type;location;lat;lon;timestamp;P1;durP1;ratioP1;P2;durP2;ratioP2
32876;SDS011;19226;51.600;8.034;2024-03-22T00:00:16;0.10;;;0.10;;
32876;SDS011;19226;51.600;8.034;2024-03-22T00:03:01;0.10;;;0.10;;
32876;SDS011;19226;51.600;8.034;2024-03-22T00:05:46;0.10;;;0.10;;
32876;SDS011;19226;51.600;8.034;2024-03-22T00:08:33;0.10;;;0.10;;
32876;SDS011;19226;51.600;8.034;2024-03-22T00:11:17;0.10;;;0.10;;
32876;SDS011;19226;51.600;8.034;2024-03-22T00:14:02;0.10;;;0.10;;
32876;SDS011;19226;51.600;8.034;2024-03-22T00:16:47;0.10;;;0.10;;
32876;SDS011;19226;51.600;8.034;2024-03-22T00:19:32;0.10;;;0.10;;
32876;SDS011;19226;51.600;8.034;2024-03-22T00:22:18;0.10;;;0.10;;
32876;SDS011;19226;51.600;8.034;2024-03-22T00:25:03;0.10;;;0.10;;
32876;SDS011;19226;51.600;8.034;2024-03-22T00:27:49;0.10;;;0.10;;
32876;SDS011;19226;51.600;8.034;2024-03-22T00:30:33;0.10;;;0.10;;
32876;SDS011;19226;51.600;8.034;2024-03-22T00:33:18;0.10;;;0.10;;
32876;SDS011;19226;51.600;8.034;2024-03-22T00:36:03;0.10;;;0.10;;
32876;SDS011;19226;51.600;8.034;2024-03-22T00:38:48;0.10;;;0.10;;
32876;SDS011;19226;51.600;8.034;2024-03-22T00:41:32;0.10;;;0.10;;
32876;SDS011;19226;51.600;8.034;2024-03-22T00:44:16;0.10;;;0.10;;
32876;SDS011;19226;51.600;8.034;2024-03-22T00:47:01;0.10;;;0.10;;
32876;SDS011;19226;51.600;8.034;2024-03-22T00:49:46;0.10;;;0.10;;
32876;SDS011;19226;51.600;8.034;2024-03-22T00:52:31;0.10;;;0.10;;
32876;SDS011;19226;51.600;8.034;2024-03-22T00:55:16;0.10;;;0.10;;
32876;SDS011;19226;51.600;8.034;2024-03-22T00:58:00;0.10;;;0.10;;
32876;SDS011;19226;51.600;8.034;2024-03-22T01:00:46;0.10;;;0.10;;
32876;SDS011;19226;51.600;8.034;2024-03-22T01:03:30;0.13;;;0.13;;
32876;SDS011;19226;51.600;8.034;2024-03-22T01:06:15;0.10;;;0.10;;
32876;SDS011;19226;51.600;8.034;2024-03-22T01:08:59;0.10;;;0.10;;
32876;SDS011;19226;51.600;8.034;2024-03-22T01:11:44;0.10;;;0.10;;
32876;SDS011;19226;51.600;8.034;2024-03-22T01:14:29;0.10;;;0.10;;
32876;SDS011;19226;51.600;8.034;2024-03-22T01:17:13;0.10;;;0.10;;
32876;SDS011;19226;51.600;8.034;2024-03-22T01:19:58;0.10;;;0.10;;
32876;SDS011;19226;51.600;8.034;2024-03-22T01:22:43;0.10;;;0.10;;
32876;SDS011;19226;51.600;8.034;2024-03-22T01:25:27;0.10;;;0.10;;
32876;SDS011;19226;51.600;8.034;2024-03-22T01:28:12;0.10;;;0.10;;
32876;SDS011;19226;51.600;8.034;2024-03-22T01:30:56;0.10;;;0.10;;
32876;SDS011;19226;51.600;8.034;2024-03-22T01:33:41;0.10;;;0.10;;
32876;SDS011;19226;51.600;8.034;2024-03-22T01:36:25;0.10;;;0.10;;
32876;SDS011;19226;51.600;8.034;2024-03-22T01:39:10;0.10;;;0.10;;
32876;SDS011;19226;51.600;8.034;2024-03-22T01:41:54;0.10;;;0.10;;
32876;SDS011;19226;51.600;8.034;2024-03-22T01:44:39;0.10;;;0.10;;
32876;SDS011;19226;51.600;8.034;2024-03-22T01:47:23;0.20;;;0.20;;
32876;SDS011;19226;51.600;8.034;2024-03-22T01:50:09;0.10;;;0.10;;
32876;SDS011;19226;51.600;8.034;2024-03-22T01:52:54;0.10;;;0.10;;
32876;SDS011;19226;51.600;8.034;2024-03-22T01:55:38;0.10;;;0.10;;
32876;SDS011;19226;51.600;8.034;2024-03-22T01:58:23;0.10;;;0.10;;
32876;SDS011;19226;51.600;8.034;2024-03-22T02:01:08;0.10;;;0.10;;
32876;SDS011;19226;51.600;8.034;2024-03-22T02:03:52;0.10;;;0.10;;
32876;SDS011;19226;51.600;8.034;2024-03-22T02:06:37;0.10;;;0.10;;
32876;SDS011;19226;51.600;8.034;2024-03-22T02:09:21;0.10;;;0.10;;
32876;SDS011;19226;51.600;8.034;2024-03-22T02:12:08;0.10;;;0.10;;
32876;SDS011;19226;51.600;8.034;2024-03-22T02:14:53;0.10;;;0.10;;
32876;SDS011;19226;51.600;8.034;2024-03-22T02:17:37;0.10;;;0.10;;
32876;SDS011;19226;51.600;8.034;2024-03-22T02:20:21;0.10;;;0.10;;
32876;SDS011;19226;51.600;8.034;2024-03-22T02:23:06;0.10;;;0.10;;
32876;SDS011;19226;51.600;8.034;2024-03-22T02:25:51;0.10;;;0.10;;
32876;SDS011;19226;51.600;8.034;2024-03-22T02:28:35;0.10;;;0.10;;
32876;SDS011;19226;51.600;8.034;2024-03-22T02:31:20;0.10;;;0.10;;
32876;SDS011;19226;51.600;8.034;2024-03-22T02:34:04;0.10;;;0.10;;
32876;SDS011;19226;51.600;8.034;2024-03-22T02:36:48;0.10;;;0.10;;
32876;SDS011;19226;51.600;8.034;2024-03-22T02:39:33;0.10;;;0.10;;
32876;SDS011;19226;51.600;8.034;2024-03-22T02:42:18;0.10;;;0.10;;
32876;SDS011;19226;51.600;8.034;2024-03-22T02:45:02;0.10;;;0.10;;
32876;SDS011;19226;51.600;8.034;2024-03-22T02:47:47;0.10;;;0.10;;
32876;SDS011;19226;51.600;8.034;2024-03-22T02:50:35;0.10;;;0.10;;
32876;SDS011;19226;51.600;8.034;2024-03-22T02:53:21;0.10;;;0.10;;
32876;SDS011;19226;51.600;8.034;2024-03-22T02:56:05;0.10;;;0.10;;
32876;SDS011;19226;51.600;8.034;2024-03-22T02:58:50;0.10;;;0.10;;
32876;SDS011;19226;51.600;8.034;2024-03-22T03:01:34;0.10;;;0.10;;
32876;SDS011;19226;51.600;8.034;2024-03-22T03:04:19;0.10;;;0.10;;
32876;SDS011;19226;51.600;8.034;2024-03-22T03:07:04;0.10;;;0.10;;
32876;SDS011;19226;51.600;8.034;2024-03-22T03:09:48;0.10;;;0.10;;
32876;SDS011;19226;51.600;8.034;2024-03-22T03:12:33;0.10;;;0.10;;
32876;SDS011;19226;51.600;8.034;2024-03-22T03:15:17;0.10;;;0.10;;
32876;SDS011;19226;51.600;8.034;2024-03-22T03:18:02;0.10;;;0.10;;
32876;SDS011;19226;51.600;8.034;2024-03-22T03:20:46;0.10;;;0.10;;
32876;SDS011;19226;51.600;8.034;2024-03-22T03:23:31;0.10;;;0.10;;
32876;SDS011;19226;51.600;8.034;2024-03-22T03:26:15;0.10;;;0.10;;
32876;SDS011;19226;51.600;8.034;2024-03-22T03:29:00;0.10;;;0.10;;
32876;SDS011;19226;51.600;8.034;2024-03-22T03:31:45;0.10;;;0.10;;
32876;SDS011;19226;51.600;8.034;2024-03-22T03:34:29;0.10;;;0.10;;
32876;SDS011;19226;51.600;8.034;2024-03-22T03:37:14;0.10;;;0.10;;
32876;SDS011;19226;51.600;8.034;2024-03-22T03:39:58;0.10;;;0.10;;
32876;SDS011;19226;51.600;8.034;2024-03-22T03:42:42;0.10;;;0.10;;
32876;SDS011;19226;51.600;8.034;2024-03-22T03:45:27;0.10;;;0.10;;
32876;SDS011;19226;51.600;8.034;2024-03-22T03:48:11;0.10;;;0.10;;
32876;SDS011;19226;51.600;8.034;2024-03-22T03:50:56;0.10;;;0.10;;
32876;SDS011;19226;51.600;8.034;2024-03-22T03:53:46;0.10;;;0.10;;
32876;SDS011;19226;51.600;8.034;2024-03-22T03:56:31;0.10;;;0.10;;
32876;SDS011;19226;51.600;8.034;2024-03-22T03:59:15;0.10;;;0.10;;
32876;SDS011;19226;51.600;8.034;2024-03-22T04:02:00;0.10;;;0.10;;
32876;SDS011;19226;51.600;8.034;2024-03-22T04:04:45;0.10;;;0.10;;
32876;SDS011;19226;51.600;8.034;2024-03-22T04:07:29;0.10;;;0.10;;
32876;SDS011;19226;51.600;8.034;2024-03-22T04:10:14;0.10;;;0.10;;
32876;SDS011;19226;51.600;8.034;2024-03-22T04:12:59;0.10;;;0.10;;
32876;SDS011;19226;51.600;8.034;2024-03-22T04:15:43;0.10;;;0.10;;
32876;SDS011;19226;51.600;8.034;2024-03-22T04:18:28;0.10;;;0.10;;
32876;SDS011;19226;51.600;8.034;2024-03-22T04:21:12;0.10;;;0.10;;
32876;SDS011;19226;51.600;8.034;2024-03-22T04:23:57;0.10;;;0.10;;
32876;SDS011;19226;51.600;8.034;2024-03-22T04:26:41;0.10;;;0.10;;
32876;SDS011;19226;51.600;8.034;2024-03-22T04:29:26;0.10;;;0.10;;
32876;SDS011;19226;51.600;8.034;2024-03-22T04:32:10;0.10;;;0.10;;
32876;SDS011;19226;51.600;8.034;2024-03-22T04:34:55;0.10;;;0.10;;
32876;SDS011;19226;51.600;8.034;2024-03-22T04:37:39;0.10;;;0.10;;
32876;SDS011;19226;51.600;8.034;2024-03-22T04:40:24;0.10;;;0.10;;
32876;SDS011;19226;51.600;8.034;2024-03-22T04:43:10;0.10;;;0.10;;
32876;SDS011;19226;51.600;8.034;2024-03-22T04:45:54;0.10;;;0.10;;
32876;SDS011;19226;51.600;8.034;2024-03-22T04:48:39;0.10;;;0.10;;
32876;SDS011;19226;51.600;8.034;2024-03-22T04:51:24;0.10;;;0.10;;
32876;SDS011;19226;51.600;8.034;2024-03-22T04:54:08;0.10;;;0.10;;
32876;SDS011;19226;51.600;8.034;2024-03-22T04:56:53;0.10;;;0.10;;
32876;SDS011;19226;51.600;8.034;2024-03-22T04:59:37;0.10;;;0.10;;
32876;SDS011;19226;51.600;8.034;2024-03-22T05:02:22;0.10;;;0.10;;
32876;SDS011;19226;51.600;8.034;2024-03-22T05:05:06;0.10;;;0.10;;
32876;SDS011;19226;51.600;8.034;2024-03-22T05:07:54;0.10;;;0.10;;
32876;SDS011;19226;51.600;8.034;2024-03-22T05:10:38;0.10;;;0.10;;
32876;SDS011;19226;51.600;8.034;2024-03-22T05:13:23;0.10;;;0.10;;
32876;SDS011;19226;51.600;8.034;2024-03-22T05:16:07;0.00;;;0.00;;
32876;SDS011;19226;51.600;8.034;2024-03-22T05:18:52;0.05;;;0.05;;
32876;SDS011;19226;51.600;8.034;2024-03-22T05:21:36;0.10;;;0.10;;
32876;SDS011;19226;51.600;8.034;2024-03-22T05:24:21;0.10;;;0.10;;
32876;SDS011;19226;51.600;8.034;2024-03-22T05:27:05;0.10;;;0.10;;
32876;SDS011;19226;51.600;8.034;2024-03-22T05:29:50;0.10;;;0.10;;
32876;SDS011;19226;51.600;8.034;2024-03-22T05:32:34;0.15;;;0.15;;
32876;SDS011;19226;51.600;8.034;2024-03-22T05:35:19;0.10;;;0.10;;
32876;SDS011;19226;51.600;8.034;2024-03-22T05:38:04;0.10;;;0.10;;
32876;SDS011;19226;51.600;8.034;2024-03-22T05:40:48;0.10;;;0.10;;
32876;SDS011;19226;51.600;8.034;2024-03-22T05:43:33;0.10;;;0.10;;
32876;SDS011;19226;51.600;8.034;2024-03-22T05:46:17;0.10;;;0.10;;
32876;SDS011;19226;51.600;8.034;2024-03-22T05:49:02;0.10;;;0.10;;
32876;SDS011;19226;51.600;8.034;2024-03-22T05:51:46;0.10;;;0.10;;
32876;SDS011;19226;51.600;8.034;2024-03-22T05:54:31;0.10;;;0.10;;
32876;SDS011;19226;51.600;8.034;2024-03-22T05:57:15;0.10;;;0.10;;
32876;SDS011;19226;51.600;8.034;2024-03-22T06:00:00;0.10;;;0.10;;
32876;SDS011;19226;51.600;8.034;2024-03-22T06:02:45;0.10;;;0.10;;
32876;SDS011;19226;51.600;8.034;2024-03-22T06:05:29;0.10;;;0.10;;
32876;SDS011;19226;51.600;8.034;2024-03-22T06:08:14;0.10;;;0.10;;
32876;SDS011;19226;51.600;8.034;2024-03-22T06:11:02;0.10;;;0.10;;
32876;SDS011;19226;51.600;8.034;2024-03-22T06:13:47;0.10;;;0.10;;
32876;SDS011;19226;51.600;8.034;2024-03-22T06:16:31;0.10;;;0.10;;
32876;SDS011;19226;51.600;8.034;2024-03-22T06:19:16;0.10;;;0.10;;
32876;SDS011;19226;51.600;8.034;2024-03-22T06:22:00;0.10;;;0.10;;
32876;SDS011;19226;51.600;8.034;2024-03-22T06:24:46;0.10;;;0.10;;
32876;SDS011;19226;51.600;8.034;2024-03-22T06:27:31;0.10;;;0.10;;
32876;SDS011;19226;51.600;8.034;2024-03-22T06:30:15;0.10;;;0.10;;
32876;SDS011;19226;51.600;8.034;2024-03-22T06:33:00;0.10;;;0.10;;
32876;SDS011;19226;51.600;8.034;2024-03-22T06:35:44;0.10;;;0.10;;
32876;SDS011;19226;51.600;8.034;2024-03-22T06:38:29;0.10;;;0.10;;
32876;SDS011;19226;51.600;8.034;2024-03-22T06:41:14;0.10;;;0.10;;
32876;SDS011;19226;51.600;8.034;2024-03-22T06:43:59;0.10;;;0.10;;
32876;SDS011;19226;51.600;8.034;2024-03-22T06:46:43;0.10;;;0.10;;
32876;SDS011;19226;51.600;8.034;2024-03-22T06:49:28;0.00;;;0.00;;
32876;SDS011;19226;51.600;8.034;2024-03-22T06:52:12;0.10;;;0.10;;
32876;SDS011;19226;51.600;8.034;2024-03-22T06:54:57;0.00;;;0.00;;
32876;SDS011;19226;51.600;8.034;2024-03-22T06:57:41;0.10;;;0.10;;
32876;SDS011;19226;51.600;8.034;2024-03-22T07:00:26;0.10;;;0.10;;
32876;SDS011;19226;51.600;8.034;2024-03-22T07:03:10;0.10;;;0.10;;
32876;SDS011;19226;51.600;8.034;2024-03-22T07:05:55;0.10;;;0.10;;
32876;SDS011;19226;51.600;8.034;2024-03-22T07:08:41;0.10;;;0.10;;
32876;SDS011;19226;51.600;8.034;2024-03-22T07:11:26;0.10;;;0.10;;
32876;SDS011;19226;51.600;8.034;2024-03-22T07:14:10;0.00;;;0.00;;
32876;SDS011;19226;51.600;8.034;2024-03-22T07:16:56;0.00;;;0.00;;
32876;SDS011;19226;51.600;8.034;2024-03-22T07:19:41;0.10;;;0.10;;
32876;SDS011;19226;51.600;8.034;2024-03-22T07:22:25;0.00;;;0.00;;
32876;SDS011;19226;51.600;8.034;2024-03-22T07:25:11;0.10;;;0.10;;
32876;SDS011;19226;51.600;8.034;2024-03-22T07:27:56;0.10;;;0.10;;
32876;SDS011;19226;51.600;8.034;2024-03-22T07:30:41;0.10;;;0.10;;
32876;SDS011;19226;51.600;8.034;2024-03-22T07:33:26;0.10;;;0.10;;
32876;SDS011;19226;51.600;8.034;2024-03-22T07:36:10;0.10;;;0.10;;
32876;SDS011;19226;51.600;8.034;2024-03-22T07:38:55;0.10;;;0.10;;
32876;SDS011;19226;51.600;8.034;2024-03-22T07:41:41;0.10;;;0.10;;
32876;SDS011;19226;51.600;8.034;2024-03-22T07:44:26;0.00;;;0.00;;
32876;SDS011;19226;51.600;8.034;2024-03-22T07:47:12;0.00;;;0.00;;
32876;SDS011;19226;51.600;8.034;2024-03-22T07:49:57;0.00;;;0.00;;
32876;SDS011;19226;51.600;8.034;2024-03-22T07:52:41;0.10;;;0.10;;
32876;SDS011;19226;51.600;8.034;2024-03-22T07:55:26;0.10;;;0.10;;
32876;SDS011;19226;51.600;8.034;2024-03-22T07:58:10;0.00;;;0.00;;
32876;SDS011;19226;51.600;8.034;2024-03-22T08:00:55;0.10;;;0.10;;
32876;SDS011;19226;51.600;8.034;2024-03-22T08:04:05;0.00;;;0.00;;
32876;SDS011;19226;51.600;8.034;2024-03-22T08:07:08;0.10;;;0.10;;
32876;SDS011;19226;51.600;8.034;2024-03-22T08:09:53;0.10;;;0.10;;
32876;SDS011;19226;51.600;8.034;2024-03-22T08:12:39;0.00;;;0.00;;
32876;SDS011;19226;51.600;8.034;2024-03-22T08:15:24;0.00;;;0.00;;
32876;SDS011;19226;51.600;8.034;2024-03-22T08:18:08;0.10;;;0.10;;
32876;SDS011;19226;51.600;8.034;2024-03-22T08:20:53;0.00;;;0.00;;
32876;SDS011;19226;51.600;8.034;2024-03-22T08:23:38;0.00;;;0.00;;
32876;SDS011;19226;51.600;8.034;2024-03-22T08:26:23;0.00;;;0.00;;
32876;SDS011;19226;51.600;8.034;2024-03-22T08:29:07;0.00;;;0.00;;
32876;SDS011;19226;51.600;8.034;2024-03-22T08:31:53;0.00;;;0.00;;
32876;SDS011;19226;51.600;8.034;2024-03-22T08:34:38;0.00;;;0.00;;
32876;SDS011;19226;51.600;8.034;2024-03-22T08:37:22;0.00;;;0.00;;
32876;SDS011;19226;51.600;8.034;2024-03-22T08:40:10;0.00;;;0.00;;
32876;SDS011;19226;51.600;8.034;2024-03-22T08:42:55;0.00;;;0.00;;
32876;SDS011;19226;51.600;8.034;2024-03-22T08:45:40;0.00;;;0.00;;
32876;SDS011;19226;51.600;8.034;2024-03-22T08:48:24;0.00;;;0.00;;
32876;SDS011;19226;51.600;8.034;2024-03-22T08:51:09;0.00;;;0.00;;
32876;SDS011;19226;51.600;8.034;2024-03-22T08:53:54;0.00;;;0.00;;
32876;SDS011;19226;51.600;8.034;2024-03-22T08:56:39;0.00;;;0.00;;
32876;SDS011;19226;51.600;8.034;2024-03-22T08:59:23;0.00;;;0.00;;
32876;SDS011;19226;51.600;8.034;2024-03-22T09:02:08;0.00;;;0.00;;
32876;SDS011;19226;51.600;8.034;2024-03-22T09:04:53;0.00;;;0.00;;
32876;SDS011;19226;51.600;8.034;2024-03-22T09:07:38;0.00;;;0.00;;
32876;SDS011;19226;51.600;8.034;2024-03-22T09:10:22;0.00;;;0.00;;
32876;SDS011;19226;51.600;8.034;2024-03-22T09:13:07;0.00;;;0.00;;
32876;SDS011;19226;51.600;8.034;2024-03-22T09:18:44;0.00;;;0.00;;
32876;SDS011;19226;51.600;8.034;2024-03-22T09:21:28;0.00;;;0.00;;
32876;SDS011;19226;51.600;8.034;2024-03-22T09:24:15;0.00;;;0.00;;
32876;SDS011;19226;51.600;8.034;2024-03-22T09:26:59;0.00;;;0.00;;
32876;SDS011;19226;51.600;8.034;2024-03-22T09:29:44;0.00;;;0.00;;
32876;SDS011;19226;51.600;8.034;2024-03-22T09:32:29;0.00;;;0.00;;
32876;SDS011;19226;51.600;8.034;2024-03-22T09:35:14;0.00;;;0.00;;
32876;SDS011;19226;51.600;8.034;2024-03-22T09:37:58;0.00;;;0.00;;
32876;SDS011;19226;51.600;8.034;2024-03-22T09:40:43;0.00;;;0.00;;
32876;SDS011;19226;51.600;8.034;2024-03-22T09:43:27;0.00;;;0.00;;
32876;SDS011;19226;51.600;8.034;2024-03-22T09:46:14;0.00;;;0.00;;
32876;SDS011;19226;51.600;8.034;2024-03-22T09:48:59;0.00;;;0.00;;
32876;SDS011;19226;51.600;8.034;2024-03-22T09:51:45;0.00;;;0.00;;
32876;SDS011;19226;51.600;8.034;2024-03-22T09:54:31;0.00;;;0.00;;
32876;SDS011;19226;51.600;8.034;2024-03-22T09:57:16;0.00;;;0.00;;
32876;SDS011;19226;51.600;8.034;2024-03-22T10:00:02;0.00;;;0.00;;
32876;SDS011;19226;51.600;8.034;2024-03-22T10:02:55;0.00;;;0.00;;
32876;SDS011;19226;51.600;8.034;2024-03-22T10:05:40;0.00;;;0.00;;
32876;SDS011;19226;51.600;8.034;2024-03-22T10:08:24;0.00;;;0.00;;
32876;SDS011;19226;51.600;8.034;2024-03-22T10:11:09;0.00;;;0.00;;
32876;SDS011;19226;51.600;8.034;2024-03-22T10:13:54;0.00;;;0.00;;
32876;SDS011;19226;51.600;8.034;2024-03-22T10:16:39;0.00;;;0.00;;
32876;SDS011;19226;51.600;8.034;2024-03-22T10:19:23;0.00;;;0.00;;
32876;SDS011;19226;51.600;8.034;2024-03-22T10:22:08;0.00;;;0.00;;
32876;SDS011;19226;51.600;8.034;2024-03-22T10:24:52;0.00;;;0.00;;
32876;SDS011;19226;51.600;8.034;2024-03-22T10:27:40;0.00;;;0.00;;
32876;SDS011;19226;51.600;8.034;2024-03-22T10:30:24;0.00;;;0.00;;
32876;SDS011;19226;51.600;8.034;2024-03-22T10:33:09;0.00;;;0.00;;
32876;SDS011;19226;51.600;8.034;2024-03-22T10:35:54;0.00;;;0.00;;
32876;SDS011;19226;51.600;8.034;2024-03-22T10:38:44;0.00;;;0.00;;
32876;SDS011;19226;51.600;8.034;2024-03-22T10:41:29;0.00;;;0.00;;
32876;SDS011;19226;51.600;8.034;2024-03-22T10:44:15;0.00;;;0.00;;
32876;SDS011;19226;51.600;8.034;2024-03-22T10:47:00;0.00;;;0.00;;
32876;SDS011;19226;51.600;8.034;2024-03-22T10:49:48;0.00;;;0.00;;
32876;SDS011;19226;51.600;8.034;2024-03-22T10:52:45;0.00;;;0.00;;
32876;SDS011;19226;51.600;8.034;2024-03-22T10:55:32;0.00;;;0.00;;
32876;SDS011;19226;51.600;8.034;2024-03-22T10:58:22;0.00;;;0.00;;
32876;SDS011;19226;51.600;8.034;2024-03-22T11:01:21;0.00;;;0.00;;
32876;SDS011;19226;51.600;8.034;2024-03-22T11:04:06;0.00;;;0.00;;
32876;SDS011;19226;51.600;8.034;2024-03-22T11:06:52;0.00;;;0.00;;
32876;SDS011;19226;51.600;8.034;2024-03-22T11:09:51;0.00;;;0.00;;
32876;SDS011;19226;51.600;8.034;2024-03-22T11:12:37;0.00;;;0.00;;
32876;SDS011;19226;51.600;8.034;2024-03-22T11:15:22;0.00;;;0.00;;
32876;SDS011;19226;51.600;8.034;2024-03-22T11:18:07;0.00;;;0.00;;
32876;SDS011;19226;51.600;8.034;2024-03-22T11:20:52;0.00;;;0.00;;
32876;SDS011;19226;51.600;8.034;2024-03-22T11:23:37;0.00;;;0.00;;
32876;SDS011;19226;51.600;8.034;2024-03-22T11:26:21;0.00;;;0.00;;
32876;SDS011;19226;51.600;8.034;2024-03-22T11:29:06;0.00;;;0.00;;
32876;SDS011;19226;51.600;8.034;2024-03-22T11:31:52;0.00;;;0.00;;
32876;SDS011;19226;51.600;8.034;2024-03-22T11:34:37;0.00;;;0.00;;
32876;SDS011;19226;51.600;8.034;2024-03-22T11:37:22;0.00;;;0.00;;
32876;SDS011;19226;51.600;8.034;2024-03-22T11:40:18;0.00;;;0.00;;
32876;SDS011;19226;51.600;8.034;2024-03-22T11:43:10;0.00;;;0.00;;
32876;SDS011;19226;51.600;8.034;2024-03-22T11:45:58;0.00;;;0.00;;
32876;SDS011;19226;51.600;8.034;2024-03-22T11:48:49;0.00;;;0.00;;
32876;SDS011;19226;51.600;8.034;2024-03-22T11:51:38;0.00;;;0.00;;
32876;SDS011;19226;51.600;8.034;2024-03-22T11:54:23;0.00;;;0.00;;
32876;SDS011;19226;51.600;8.034;2024-03-22T11:57:11;0.00;;;0.00;;
32876;SDS011;19226;51.600;8.034;2024-03-22T11:59:58;0.00;;;0.00;;
32876;SDS011;19226;51.600;8.034;2024-03-22T12:02:44;0.00;;;0.00;;
32876;SDS011;19226;51.600;8.034;2024-03-22T12:05:29;0.00;;;0.00;;
32876;SDS011;19226;51.600;8.034;2024-03-22T12:08:16;0.00;;;0.00;;
32876;SDS011;19226;51.600;8.034;2024-03-22T12:11:02;0.00;;;0.00;;
32876;SDS011;19226;51.600;8.034;2024-03-22T12:13:47;0.00;;;0.00;;
32876;SDS011;19226;51.600;8.034;2024-03-22T12:16:31;0.00;;;0.00;;
32876;SDS011;19226;51.600;8.034;2024-03-22T12:19:16;0.00;;;0.00;;
32876;SDS011;19226;51.600;8.034;2024-03-22T12:22:01;0.00;;;0.00;;
32876;SDS011;19226;51.600;8.034;2024-03-22T12:24:46;0.00;;;0.00;;
32876;SDS011;19226;51.600;8.034;2024-03-22T12:27:30;0.00;;;0.00;;
32876;SDS011;19226;51.600;8.034;2024-03-22T12:30:15;0.00;;;0.00;;
32876;SDS011;19226;51.600;8.034;2024-03-22T12:32:59;0.00;;;0.00;;
32876;SDS011;19226;51.600;8.034;2024-03-22T12:35:44;0.00;;;0.00;;
32876;SDS011;19226;51.600;8.034;2024-03-22T12:38:30;0.00;;;0.00;;
32876;SDS011;19226;51.600;8.034;2024-03-22T12:41:15;0.00;;;0.00;;
32876;SDS011;19226;51.600;8.034;2024-03-22T12:43:59;0.00;;;0.00;;
32876;SDS011;19226;51.600;8.034;2024-03-22T12:46:44;0.00;;;0.00;;
32876;SDS011;19226;51.600;8.034;2024-03-22T12:49:29;0.00;;;0.00;;
32876;SDS011;19226;51.600;8.034;2024-03-22T12:52:14;0.00;;;0.00;;
32876;SDS011;19226;51.600;8.034;2024-03-22T12:54:58;0.00;;;0.00;;
32876;SDS011;19226;51.600;8.034;2024-03-22T12:57:42;0.00;;;0.00;;
32876;SDS011;19226;51.600;8.034;2024-03-22T13:00:27;0.00;;;0.00;;
32876;SDS011;19226;51.600;8.034;2024-03-22T13:03:13;0.00;;;0.00;;
32876;SDS011;19226;51.600;8.034;2024-03-22T13:06:00;0.00;;;0.00;;
32876;SDS011;19226;51.600;8.034;2024-03-22T13:08:45;0.00;;;0.00;;
32876;SDS011;19226;51.600;8.034;2024-03-22T13:11:30;0.00;;;0.00;;
32876;SDS011;19226;51.600;8.034;2024-03-22T13:14:18;0.00;;;0.00;;
32876;SDS011;19226;51.600;8.034;2024-03-22T13:17:02;0.00;;;0.00;;
32876;SDS011;19226;51.600;8.034;2024-03-22T13:19:48;0.00;;;0.00;;
32876;SDS011;19226;51.600;8.034;2024-03-22T13:22:33;0.00;;;0.00;;
32876;SDS011;19226;51.600;8.034;2024-03-22T13:25:18;0.00;;;0.00;;
32876;SDS011;19226;51.600;8.034;2024-03-22T13:28:04;0.00;;;0.00;;
32876;SDS011;19226;51.600;8.034;2024-03-22T13:31:04;0.00;;;0.00;;
32876;SDS011;19226;51.600;8.034;2024-03-22T13:33:52;0.00;;;0.00;;
32876;SDS011;19226;51.600;8.034;2024-03-22T13:36:37;0.00;;;0.00;;
32876;SDS011;19226;51.600;8.034;2024-03-22T13:39:24;0.00;;;0.00;;
32876;SDS011;19226;51.600;8.034;2024-03-22T13:42:09;0.00;;;0.00;;
32876;SDS011;19226;51.600;8.034;2024-03-22T13:44:56;0.00;;;0.00;;
32876;SDS011;19226;51.600;8.034;2024-03-22T13:47:42;0.00;;;0.00;;
32876;SDS011;19226;51.600;8.034;2024-03-22T13:50:26;0.00;;;0.00;;
32876;SDS011;19226;51.600;8.034;2024-03-22T13:53:12;0.00;;;0.00;;
32876;SDS011;19226;51.600;8.034;2024-03-22T13:55:58;0.00;;;0.00;;
32876;SDS011;19226;51.600;8.034;2024-03-22T13:58:44;0.00;;;0.00;;
32876;SDS011;19226;51.600;8.034;2024-03-22T14:01:29;0.00;;;0.00;;
32876;SDS011;19226;51.600;8.034;2024-03-22T14:04:14;0.00;;;0.00;;
32876;SDS011;19226;51.600;8.034;2024-03-22T14:07:03;0.00;;;0.00;;
32876;SDS011;19226;51.600;8.034;2024-03-22T14:09:48;0.00;;;0.00;;
32876;SDS011;19226;51.600;8.034;2024-03-22T14:12:33;0.00;;;0.00;;
32876;SDS011;19226;51.600;8.034;2024-03-22T14:15:18;0.00;;;0.00;;
32876;SDS011;19226;51.600;8.034;2024-03-22T14:18:02;0.00;;;0.00;;
32876;SDS011;19226;51.600;8.034;2024-03-22T14:20:49;0.00;;;0.00;;
32876;SDS011;19226;51.600;8.034;2024-03-22T14:23:33;0.00;;;0.00;;
32876;SDS011;19226;51.600;8.034;2024-03-22T14:26:18;0.00;;;0.00;;
32876;SDS011;19226;51.600;8.034;2024-03-22T14:29:02;0.00;;;0.00;;
32876;SDS011;19226;51.600;8.034;2024-03-22T14:31:49;0.00;;;0.00;;
32876;SDS011;19226;51.600;8.034;2024-03-22T14:34:33;0.00;;;0.00;;
32876;SDS011;19226;51.600;8.034;2024-03-22T14:37:18;0.00;;;0.00;;
32876;SDS011;19226;51.600;8.034;2024-03-22T14:40:03;0.00;;;0.00;;
32876;SDS011;19226;51.600;8.034;2024-03-22T14:43:08;0.00;;;0.00;;
32876;SDS011;19226;51.600;8.034;2024-03-22T14:46:51;0.00;;;0.00;;
32876;SDS011;19226;51.600;8.034;2024-03-22T14:49:35;0.00;;;0.00;;
32876;SDS011;19226;51.600;8.034;2024-03-22T14:52:20;0.00;;;0.00;;
32876;SDS011;19226;51.600;8.034;2024-03-22T14:55:05;0.00;;;0.00;;
32876;SDS011;19226;51.600;8.034;2024-03-22T14:57:51;0.00;;;0.00;;
32876;SDS011;19226;51.600;8.034;2024-03-22T15:00:36;0.00;;;0.00;;
32876;SDS011;19226;51.600;8.034;2024-03-22T15:03:21;0.00;;;0.00;;
32876;SDS011;19226;51.600;8.034;2024-03-22T15:06:06;0.00;;;0.00;;
32876;SDS011;19226;51.600;8.034;2024-03-22T15:08:51;0.00;;;0.00;;
32876;SDS011;19226;51.600;8.034;2024-03-22T15:11:35;0.00;;;0.00;;
32876;SDS011;19226;51.600;8.034;2024-03-22T15:14:20;0.00;;;0.00;;
32876;SDS011;19226;51.600;8.034;2024-03-22T15:17:06;0.00;;;0.00;;
32876;SDS011;19226;51.600;8.034;2024-03-22T15:19:52;0.00;;;0.00;;
32876;SDS011;19226;51.600;8.034;2024-03-22T15:22:37;0.00;;;0.00;;
32876;SDS011;19226;51.600;8.034;2024-03-22T15:25:21;0.00;;;0.00;;
32876;SDS011;19226;51.600;8.034;2024-03-22T15:28:06;0.00;;;0.00;;
32876;SDS011;19226;51.600;8.034;2024-03-22T15:30:51;0.00;;;0.00;;
32876;SDS011;19226;51.600;8.034;2024-03-22T15:33:38;0.00;;;0.00;;
32876;SDS011;19226;51.600;8.034;2024-03-22T15:36:24;0.00;;;0.00;;
32876;SDS011;19226;51.600;8.034;2024-03-22T15:39:08;0.00;;;0.00;;
32876;SDS011;19226;51.600;8.034;2024-03-22T15:41:54;0.00;;;0.00;;
32876;SDS011;19226;51.600;8.034;2024-03-22T15:44:39;0.00;;;0.00;;
32876;SDS011;19226;51.600;8.034;2024-03-22T15:47:24;0.00;;;0.00;;
32876;SDS011;19226;51.600;8.034;2024-03-22T15:50:09;0.00;;;0.00;;
32876;SDS011;19226;51.600;8.034;2024-03-22T15:52:54;0.10;;;0.10;;
32876;SDS011;19226;51.600;8.034;2024-03-22T15:55:38;0.08;;;0.08;;
32876;SDS011;19226;51.600;8.034;2024-03-22T15:58:22;0.00;;;0.00;;
32876;SDS011;19226;51.600;8.034;2024-03-22T16:01:07;0.00;;;0.00;;
32876;SDS011;19226;51.600;8.034;2024-03-22T16:03:52;0.00;;;0.00;;
32876;SDS011;19226;51.600;8.034;2024-03-22T16:06:36;0.00;;;0.00;;
32876;SDS011;19226;51.600;8.034;2024-03-22T16:09:22;0.10;;;0.10;;
32876;SDS011;19226;51.600;8.034;2024-03-22T16:12:07;0.10;;;0.10;;
32876;SDS011;19226;51.600;8.034;2024-03-22T16:14:51;0.03;;;0.03;;
32876;SDS011;19226;51.600;8.034;2024-03-22T16:17:36;0.00;;;0.00;;
32876;SDS011;19226;51.600;8.034;2024-03-22T16:20:20;0.00;;;0.00;;
32876;SDS011;19226;51.600;8.034;2024-03-22T16:23:05;0.10;;;0.10;;
32876;SDS011;19226;51.600;8.034;2024-03-22T16:25:52;0.00;;;0.00;;
32876;SDS011;19226;51.600;8.034;2024-03-22T16:28:37;0.10;;;0.10;;
32876;SDS011;19226;51.600;8.034;2024-03-22T16:31:28;0.00;;;0.00;;
32876;SDS011;19226;51.600;8.034;2024-03-22T16:34:12;0.00;;;0.00;;
32876;SDS011;19226;51.600;8.034;2024-03-22T16:36:58;0.10;;;0.10;;
32876;SDS011;19226;51.600;8.034;2024-03-22T16:39:42;0.10;;;0.10;;